River Grove, Illinois
Current Conditions -  °F | °C
As of 7:51 PM on Friday 31 Oct 2014 (Local Time) from KORD Reporting Station
Overcast Overcast  
Wind Chill: 26°   Ceiling: 4900
Heat Index: 37°   Visibility: 10mi
Dew Point: 20°   Wind: 22mph
Humidity: 50%   Direction: 350°N
Pressure: 30.32"   Gusts: 32mph
Location:  41.93°N, 87.83°W
Report Text: KORD 010051Z 35019G28KT 10SM FEW038 BKN049 OVC060 03/M07 A3032 RMK AO2 PK WND 01029/0031 SLP273 T00281067
Loading
Personal Weather Stations






























Interactive Weather Map
Tropical Storm Tracking
New forecast layout! Learn more

10-Day Weather Forecast

Advertisements
Track Severe Weather on mobile